메인 페이지
METAR-TAF:

METAR-TAF

공항 :

부다페스트 리스트 페렌츠 국제공항

부다페스트, 헝가리

위도: 47-26N, 경도: 019-16E, 고도: 151m

현재 날씨관측

예보는 14분 전, 22:00시(UTC)에 발표되었습니다.
여러 방향의 바람 2kt
온도 20°C
습도 88%
기압 1019 hPa
시정 10km 이상
1500m 미만 상공 구름 및 적란운 없음

METAR: LHBP 182200Z VRB02KT CAVOK 20/18 Q1019 NOSIG

시각: 00:14 (22:14 UTC)

예보

예보는 4 시간 59분 전, 17:15시(UTC)에 발표되었습니다.
예보 대상 시간: 18일 18시부터 19일 18시까지 (UTC)
북북서7kt
시정 10km 이상
1500m 미만 상공 구름 및 적란운 없음
전환 중
18일 18시부터 18일 20시까지 (UTC)
여러 방향의 바람 3kt
전환 중
19일 05시부터 19일 08시까지 (UTC)
동북동7kt

TAF: LHBP 181715Z 1818/1918 33007KT CAVOK BECMG 1818/1820 VRB03KT BECMG 1905/1908 07007KT

4,000개 이상의 공항 관측 자료 및 예보 (METAR 및 TAF 보고).

지도상에서 검색 가능한 기상관측소가 노란 점과 빨간 점으로 표시되어 있습니다.

기상관측소 명을 보려면 표시 위로 마우스를 이동하세요.

날씨 관측과 예보를 보려면 클릭하세요.

지도 변경 : 확대하려면 엑스 표시가 있는 녹색 버튼, 축소하려면 빼기 표시가 있는 녹색 버튼, 다음 페이지의 지도를 보려면 녹색 화살표를 클릭하세요.


METAR-TAF: